Addison, Alabama
Current Conditions -  °F | °C
As of 3:55 AM on Friday 31 Oct 2014 (Local Time) from KCMD Reporting Station
Clear Clear  
Wind Chill: 40°   Ceiling: Unl
Heat Index: 40°   Visibility: 10mi
Dew Point: 40°   Wind: 0mph
Humidity: 98%   Direction: NA
Pressure: 30.01"   Gusts: NA
Location:  34.2°N, 87.18°W
Report Text: KCMD 310855Z AUTO 00000KT 10SM CLR 05/04 A3001 RMK AO2 T00470044
Loading
Personal Weather Stations






























Interactive Weather Map
Tropical Storm Tracking
New forecast layout! Learn more

10-Day Weather Forecast

Advertisements
Track Severe Weather on mobile